createdAt,value
2019-05-15T00:00:58.890Z,91.60
2019-05-15T00:03:28.857Z,92.00
2019-05-15T00:05:58.693Z,91.80
2019-05-15T00:08:28.807Z,91.90
2019-05-15T00:10:58.822Z,91.90
2019-05-15T00:13:28.452Z,91.80
2019-05-15T00:15:59.022Z,91.80
2019-05-15T00:18:28.895Z,91.80
2019-05-15T00:20:59.461Z,91.80
2019-05-15T00:23:30.317Z,91.90
2019-05-15T00:26:00.140Z,92.10
2019-05-15T00:28:29.744Z,92.10
2019-05-15T00:30:59.490Z,92.30
2019-05-15T00:33:29.409Z,92.20
2019-05-15T00:35:59.118Z,92.90
2019-05-15T00:38:28.832Z,92.40
2019-05-15T00:40:58.682Z,92.40
2019-05-15T00:43:29.106Z,92.50
2019-05-15T00:45:58.882Z,92.30
2019-05-15T00:48:29.207Z,92.40
2019-05-15T00:50:59.898Z,93.00
2019-05-15T00:53:29.607Z,92.60
2019-05-15T00:55:59.128Z,92.70
2019-05-15T00:58:28.728Z,92.60
2019-05-15T01:00:59.185Z,92.90
2019-05-15T01:03:28.699Z,93.00
2019-05-15T01:05:58.625Z,93.30
2019-05-15T01:08:28.582Z,93.40
2019-05-15T01:10:58.491Z,93.00
2019-05-15T01:13:28.309Z,93.50
2019-05-15T01:15:58.291Z,93.50
2019-05-15T01:18:29.256Z,93.60
2019-05-15T01:20:59.284Z,93.90
2019-05-15T01:23:28.938Z,93.70
2019-05-15T01:25:58.872Z,93.90
2019-05-15T01:28:28.975Z,94.00
2019-05-15T01:30:59.656Z,94.20
2019-05-15T01:33:29.544Z,94.10
2019-05-15T01:35:59.190Z,94.10
2019-05-15T01:38:28.744Z,94.00
2019-05-15T01:40:59.151Z,94.30
2019-05-15T01:43:29.269Z,94.60
2019-05-15T01:45:59.226Z,94.60
2019-05-15T01:48:28.628Z,94.60
2019-05-15T01:50:58.513Z,94.70
2019-05-15T01:53:29.045Z,94.90
2019-05-15T01:55:59.070Z,95.10
2019-05-15T01:58:28.873Z,94.90
2019-05-15T02:00:58.969Z,94.90
2019-05-15T02:03:29.760Z,95.20
2019-05-15T02:06:00.653Z,95.40
2019-05-15T02:08:30.166Z,96.70
2019-05-15T02:10:59.853Z,95.70
2019-05-15T02:13:29.322Z,95.90
2019-05-15T02:15:59.878Z,96.00
2019-05-15T02:18:29.396Z,96.20
2019-05-15T02:20:59.199Z,96.40
2019-05-15T02:23:28.722Z,96.60
2019-05-15T02:25:58.871Z,96.60
2019-05-15T02:28:28.994Z,97.10
2019-05-15T02:30:59.704Z,97.10
2019-05-15T02:33:30.025Z,97.40
2019-05-15T02:36:00.945Z,97.00
2019-05-15T02:38:30.485Z,97.20
2019-05-15T02:41:00.075Z,97.30
2019-05-15T02:43:30.064Z,97.20
2019-05-15T02:46:00.625Z,97.20
2019-05-15T02:48:30.300Z,97.50
2019-05-15T02:50:59.797Z,97.50
2019-05-15T02:53:30.116Z,97.50
2019-05-15T02:56:00.349Z,97.60
2019-05-15T02:58:29.973Z,97.50
2019-05-15T03:00:59.813Z,97.60
2019-05-15T03:03:29.659Z,97.80
2019-05-15T03:06:00.095Z,97.70
2019-05-15T03:08:30.208Z,97.80
2019-05-15T03:10:59.655Z,97.80
2019-05-15T03:13:30.090Z,98.10
2019-05-15T03:16:00.132Z,98.10
2019-05-15T03:18:29.831Z,98.20
2019-05-15T03:21:00.323Z,98.30
2019-05-15T03:23:30.074Z,98.10
2019-05-15T03:26:04.089Z,98.10
2019-05-15T03:28:31.466Z,98.20
2019-05-15T03:31:22.377Z,98.20
2019-05-15T03:33:36.705Z,98.10
2019-05-15T03:36:03.841Z,98.20
2019-05-15T03:38:34.640Z,98.40
2019-05-15T03:41:04.429Z,98.40
2019-05-15T03:43:34.031Z,98.40
2019-05-15T03:46:03.609Z,98.50
2019-05-15T03:48:33.062Z,98.40
2019-05-15T03:51:02.728Z,98.60
2019-05-15T03:53:32.357Z,98.40
2019-05-15T03:56:02.105Z,98.40
2019-05-15T03:58:31.854Z,98.50
2019-05-15T04:01:01.567Z,98.20
2019-05-15T04:03:31.146Z,98.50
2019-05-15T04:06:00.773Z,98.70
2019-05-15T04:08:30.465Z,98.70
2019-05-15T04:11:00.396Z,98.70
2019-05-15T04:13:30.304Z,98.70
2019-05-15T04:16:00.099Z,98.80
2019-05-15T04:18:29.865Z,98.90
2019-05-15T04:21:00.317Z,99.00
2019-05-15T04:23:30.393Z,99.00
2019-05-15T04:26:00.161Z,98.90
2019-05-15T04:28:30.324Z,98.70
2019-05-15T04:31:00.029Z,99.00
2019-05-15T04:33:30.978Z,99.20
2019-05-15T04:36:00.531Z,99.10
2019-05-15T04:38:30.157Z,99.30
2019-05-15T04:40:59.960Z,99.20
2019-05-15T04:43:35.095Z,99.40
2019-05-15T04:46:03.110Z,99.30
2019-05-15T04:48:32.270Z,99.60
2019-05-15T04:51:01.928Z,99.60
2019-05-15T04:53:33.087Z,99.50
2019-05-15T04:56:02.763Z,99.50
2019-05-15T04:58:32.362Z,99.60
2019-05-15T05:01:01.820Z,99.20
2019-05-15T05:03:34.330Z,99.30
2019-05-15T05:06:02.843Z,99.50
2019-05-15T05:08:32.533Z,99.40
2019-05-15T05:11:02.145Z,99.60
2019-05-15T05:13:32.039Z,99.70
2019-05-15T05:16:01.847Z,99.70
2019-05-15T05:18:31.269Z,99.50
2019-05-15T05:21:00.979Z,99.70
2019-05-15T05:23:30.423Z,99.60
2019-05-15T05:26:00.036Z,99.70
2019-05-15T05:28:29.433Z,99.90
2019-05-15T05:30:59.048Z,99.80
2019-05-15T05:33:28.848Z,99.70
2019-05-15T05:35:58.620Z,99.90
2019-05-15T05:38:28.396Z,99.80
2019-05-15T05:40:58.742Z,99.70
2019-05-15T05:43:29.937Z,99.80
2019-05-15T05:45:59.547Z,99.80
2019-05-15T05:48:29.348Z,99.90
2019-05-15T05:50:59.994Z,99.90
2019-05-15T05:53:29.545Z,99.70
2019-05-15T05:55:59.153Z,99.90
2019-05-15T05:58:29.751Z,99.90
2019-05-15T06:00:59.527Z,99.90
2019-05-15T06:03:29.310Z,99.90
2019-05-15T06:05:59.236Z,99.90
2019-05-15T06:08:28.800Z,99.90
2019-05-15T06:10:58.676Z,99.90
2019-05-15T06:13:29.075Z,99.80
2019-05-15T06:15:59.201Z,99.80
2019-05-15T06:18:28.657Z,99.80
2019-05-15T06:20:58.751Z,99.90
2019-05-15T06:23:35.167Z,99.80
2019-05-15T06:25:59.497Z,99.70
2019-05-15T06:28:30.433Z,99.90
2019-05-15T06:31:00.714Z,99.90
2019-05-15T06:33:31.789Z,99.90
2019-05-15T06:36:01.293Z,99.90
2019-05-15T06:38:31.178Z,99.90
2019-05-15T06:41:01.027Z,99.90
2019-05-15T06:43:30.528Z,99.90
2019-05-15T06:46:00.100Z,99.90
2019-05-15T06:48:29.599Z,99.90
2019-05-15T06:50:59.272Z,99.90
2019-05-15T06:53:29.129Z,99.90
2019-05-15T06:55:58.678Z,99.90
2019-05-15T06:58:28.980Z,99.90
2019-05-15T07:00:59.261Z,99.90
2019-05-15T07:03:29.545Z,99.90
2019-05-15T07:05:59.900Z,99.90
2019-05-15T07:08:29.659Z,99.90
2019-05-15T07:10:59.031Z,99.90
2019-05-15T07:13:29.776Z,99.90
2019-05-15T07:15:59.462Z,99.90
2019-05-15T07:18:28.793Z,99.90
2019-05-15T07:20:58.252Z,99.90
2019-05-15T07:23:30.554Z,99.90
2019-05-15T07:25:58.969Z,99.90
2019-05-15T07:28:28.812Z,99.90
2019-05-15T07:30:58.693Z,99.90
2019-05-15T07:33:36.780Z,99.90
2019-05-15T07:35:59.295Z,99.90
2019-05-15T07:38:28.664Z,99.90
2019-05-15T07:41:03.331Z,99.90
2019-05-15T07:43:29.376Z,99.90
2019-05-15T07:45:59.169Z,99.90
2019-05-15T07:48:29.283Z,99.90
2019-05-15T07:50:59.448Z,99.90
2019-05-15T07:53:29.407Z,99.90
2019-05-15T07:56:00.983Z,99.90
2019-05-15T07:58:29.908Z,99.90
2019-05-15T08:00:59.500Z,99.90
2019-05-15T08:03:29.359Z,99.90
2019-05-15T08:06:03.083Z,99.90
2019-05-15T08:08:31.367Z,99.90
2019-05-15T08:11:14.890Z,99.90
2019-05-15T08:13:31.824Z,99.90
2019-05-15T08:16:01.193Z,99.90
2019-05-15T08:18:32.172Z,99.90
2019-05-15T08:21:03.041Z,99.90
2019-05-15T08:23:32.379Z,99.90
2019-05-15T08:26:01.685Z,99.90
2019-05-15T08:28:31.021Z,99.90
2019-05-15T08:31:00.545Z,99.90
2019-05-15T08:33:30.052Z,99.90
2019-05-15T08:35:59.765Z,99.80
2019-05-15T08:38:29.139Z,99.70
2019-05-15T08:40:59.228Z,99.70
2019-05-15T08:43:31.259Z,99.70
2019-05-15T08:45:59.881Z,99.50
2019-05-15T08:48:32.793Z,99.70
2019-05-15T08:51:01.427Z,99.80
2019-05-15T08:53:30.891Z,99.70
2019-05-15T08:56:00.354Z,99.70
2019-05-15T08:58:30.887Z,99.60
2019-05-15T09:01:00.286Z,99.40
2019-05-15T09:03:29.733Z,99.40
2019-05-15T09:05:59.319Z,99.40
2019-05-15T09:08:29.583Z,99.40
2019-05-15T09:10:59.155Z,99.90
2019-05-15T09:13:29.650Z,99.40
2019-05-15T09:15:59.294Z,99.50
2019-05-15T09:18:28.824Z,99.50
2019-05-15T09:20:59.333Z,99.60
2019-05-15T09:23:29.287Z,99.80
2019-05-15T09:25:58.698Z,99.90
2019-05-15T09:28:29.616Z,99.90
2019-05-15T09:30:59.265Z,99.90
2019-05-15T09:33:28.876Z,99.90
2019-05-15T09:35:58.550Z,99.90
2019-05-15T09:38:28.894Z,99.90
2019-05-15T09:40:58.858Z,99.90
2019-05-15T09:43:28.641Z,99.90
2019-05-15T09:45:58.449Z,99.90
2019-05-15T09:48:28.692Z,99.90
2019-05-15T09:50:58.853Z,99.90
2019-05-15T09:53:28.666Z,99.90
2019-05-15T09:55:59.971Z,99.90
2019-05-15T09:58:30.305Z,99.90
2019-05-15T10:00:59.808Z,99.90
2019-05-15T10:03:30.308Z,99.90
2019-05-15T10:05:59.781Z,99.90
2019-05-15T10:08:29.420Z,99.90
2019-05-15T10:10:59.495Z,99.90
2019-05-15T10:13:29.097Z,99.90
2019-05-15T10:15:58.692Z,99.90
2019-05-15T10:18:28.379Z,99.90
2019-05-15T10:20:58.277Z,99.90
2019-05-15T10:23:29.162Z,99.90
2019-05-15T10:25:59.215Z,99.90
2019-05-15T10:28:29.366Z,99.90
2019-05-15T10:31:00.049Z,99.90
2019-05-15T10:33:29.837Z,99.90
2019-05-15T10:35:59.331Z,99.90
2019-05-15T10:38:28.970Z,99.90
2019-05-15T10:41:08.072Z,99.90
2019-05-15T10:43:29.460Z,99.90
2019-05-15T10:45:58.899Z,99.90
2019-05-15T10:48:29.558Z,99.90
2019-05-15T10:51:06.287Z,99.90
2019-05-15T10:53:31.137Z,99.90
2019-05-15T10:56:02.687Z,99.90
2019-05-15T10:58:31.587Z,99.90
2019-05-15T11:01:02.485Z,99.90
2019-05-15T11:03:34.905Z,99.90
2019-05-15T11:06:02.970Z,99.90
2019-05-15T11:08:32.585Z,99.90
2019-05-15T11:11:02.073Z,99.90
2019-05-15T11:13:31.691Z,99.90
2019-05-15T11:16:01.097Z,99.90
2019-05-15T11:18:30.924Z,99.90
2019-05-15T11:21:00.331Z,99.90
2019-05-15T11:23:29.860Z,99.90
2019-05-15T11:25:59.238Z,99.90
2019-05-15T11:28:31.919Z,99.90
2019-05-15T11:30:59.704Z,99.90
2019-05-15T11:33:29.557Z,99.90
2019-05-15T11:36:05.446Z,99.90
2019-05-15T11:38:30.585Z,99.90
2019-05-15T11:41:04.500Z,99.90
2019-05-15T11:43:32.619Z,99.90
2019-05-15T11:46:02.062Z,99.90
2019-05-15T11:48:31.589Z,99.90
2019-05-15T11:51:01.064Z,99.90
2019-05-15T11:53:30.457Z,99.90
2019-05-15T11:56:00.373Z,99.90
2019-05-15T11:58:30.046Z,99.90
2019-05-15T12:00:59.704Z,99.90
2019-05-15T12:03:29.344Z,99.90
2019-05-15T12:06:14.582Z,99.90
2019-05-15T12:08:31.597Z,99.90
2019-05-15T12:11:01.073Z,99.90
2019-05-15T12:13:30.748Z,99.90
2019-05-15T12:16:00.483Z,99.90
2019-05-15T12:18:29.914Z,99.90
2019-05-15T12:20:59.833Z,99.90
2019-05-15T12:23:30.338Z,99.90
2019-05-15T12:26:00.138Z,99.90
2019-05-15T12:28:29.911Z,99.90
2019-05-15T12:31:00.374Z,99.90
2019-05-15T12:33:31.225Z,99.90
2019-05-15T12:36:01.247Z,99.90
2019-05-15T12:38:30.647Z,99.90
2019-05-15T13:01:16.846Z,99.90
2019-05-15T13:03:42.553Z,99.90
2019-05-15T13:06:12.156Z,99.90
2019-05-15T13:08:41.970Z,99.90
2019-05-15T13:11:15.193Z,99.90
2019-05-15T13:13:43.011Z,99.90
2019-05-15T13:16:12.555Z,99.90
2019-05-15T13:18:42.023Z,99.90
2019-05-15T13:21:11.684Z,99.90
2019-05-15T13:23:41.095Z,99.90
2019-05-15T13:26:23.076Z,99.90
2019-05-15T13:28:41.961Z,99.90
2019-05-15T13:31:11.516Z,99.90
2019-05-15T13:33:41.126Z,99.90
2019-05-15T13:36:10.873Z,99.90
2019-05-15T13:38:40.321Z,99.90
2019-05-15T13:41:09.989Z,99.90
2019-05-15T13:43:40.337Z,99.90
2019-05-15T13:46:09.978Z,99.90
2019-05-15T13:48:39.628Z,99.90
2019-05-15T13:51:09.102Z,99.90
2019-05-15T13:53:39.119Z,99.90
2019-05-15T13:56:09.057Z,99.90
2019-05-15T13:58:38.939Z,99.90
2019-05-15T14:01:09.878Z,99.90
2019-05-15T14:03:39.726Z,99.90
2019-05-15T14:06:10.168Z,99.90
2019-05-15T14:08:40.265Z,99.90
2019-05-15T14:11:09.829Z,99.90
2019-05-15T14:13:39.526Z,99.90
2019-05-15T14:16:09.736Z,99.90
2019-05-15T14:18:39.520Z,99.90
2019-05-15T14:21:10.170Z,99.90
2019-05-15T14:23:39.775Z,99.90
2019-05-15T14:26:17.887Z,99.90
2019-05-15T14:28:41.339Z,99.90
2019-05-15T14:31:11.761Z,99.90
2019-05-15T14:33:48.743Z,99.90
2019-05-15T14:36:18.679Z,99.90
2019-05-15T14:38:48.626Z,99.90
2019-05-15T14:41:18.951Z,99.90
2019-05-15T14:43:49.531Z,99.90
2019-05-15T14:46:19.078Z,99.90
2019-05-15T14:48:49.289Z,99.90
2019-05-15T14:51:19.370Z,99.90
2019-05-15T14:53:49.156Z,99.90
2019-05-15T14:56:19.169Z,99.90
2019-05-15T14:58:49.800Z,99.90
2019-05-15T15:01:19.228Z,99.90
2019-05-15T15:03:48.912Z,99.90
2019-05-15T15:06:19.069Z,99.90
2019-05-15T15:08:48.976Z,99.90
2019-05-15T15:11:18.888Z,99.90
2019-05-15T15:13:48.562Z,99.90
2019-05-15T15:16:19.385Z,99.90
2019-05-15T15:18:49.107Z,99.90
2019-05-15T15:21:22.494Z,99.90
2019-05-15T15:23:49.773Z,99.90
2019-05-15T15:26:19.349Z,99.90
2019-05-15T15:28:49.095Z,99.90
2019-05-15T15:31:19.296Z,99.90
2019-05-15T15:33:49.211Z,99.90
2019-05-15T15:36:18.829Z,99.90
2019-05-15T15:38:48.768Z,99.90
2019-05-15T15:41:18.319Z,99.90
2019-05-15T15:43:48.467Z,99.90
2019-05-15T15:46:19.512Z,99.90
2019-05-15T15:48:49.159Z,99.90
2019-05-15T15:51:18.836Z,99.90
2019-05-15T15:53:49.495Z,99.90
2019-05-15T15:56:19.217Z,99.90
2019-05-15T15:58:49.123Z,99.90
2019-05-15T16:01:18.812Z,99.90
2019-05-15T16:03:48.578Z,99.90
2019-05-15T16:06:18.933Z,99.90
2019-05-15T16:08:55.480Z,99.90
2019-05-15T16:11:19.765Z,99.90
2019-05-15T16:13:49.850Z,99.90
2019-05-15T16:16:20.868Z,99.90
2019-05-15T16:18:50.909Z,99.90
2019-05-15T16:21:20.845Z,99.90
2019-05-15T16:23:50.340Z,99.90
2019-05-15T16:26:19.971Z,99.90
2019-05-15T16:28:49.361Z,99.90
2019-05-15T16:31:19.108Z,99.90
2019-05-15T16:33:48.710Z,99.90
2019-05-15T16:36:18.512Z,99.90
2019-05-15T16:38:48.291Z,99.90
2019-05-15T16:41:18.432Z,99.90
2019-05-15T16:43:48.505Z,99.90
2019-05-15T16:46:19.272Z,99.90
2019-05-15T16:48:50.564Z,99.90
2019-05-15T16:51:20.542Z,99.90
2019-05-15T16:53:50.527Z,99.90
2019-05-15T16:56:20.292Z,99.90
2019-05-15T16:58:49.920Z,99.90
2019-05-15T17:01:19.732Z,99.90
2019-05-15T17:03:49.358Z,99.90
2019-05-15T17:06:20.199Z,99.90
2019-05-15T17:08:50.113Z,99.90
2019-05-15T17:11:20.090Z,99.90
2019-05-15T17:13:49.848Z,99.90
2019-05-15T17:16:20.037Z,99.90
2019-05-15T17:18:49.689Z,99.90
2019-05-15T17:21:19.883Z,99.90
2019-05-15T17:23:50.820Z,99.90
2019-05-15T17:26:20.641Z,99.90
2019-05-15T17:28:49.996Z,99.90
2019-05-15T17:31:19.505Z,99.90
2019-05-15T17:33:49.259Z,99.90
2019-05-15T17:36:19.777Z,99.90
2019-05-15T17:38:49.377Z,99.90
2019-05-15T17:41:18.867Z,99.90
2019-05-15T17:43:48.713Z,99.90
2019-05-15T17:46:18.207Z,99.90
2019-05-15T17:48:55.451Z,99.90
2019-05-15T17:51:19.196Z,99.90
2019-05-15T17:53:48.917Z,99.90
2019-05-15T17:56:18.927Z,99.90
2019-05-15T17:58:50.333Z,99.90
2019-05-15T18:01:20.413Z,99.90
2019-05-15T18:03:51.690Z,99.90
2019-05-15T18:06:21.758Z,99.90
2019-05-15T18:08:51.750Z,99.90
2019-05-15T18:11:22.060Z,99.90
2019-05-15T18:13:51.768Z,99.90
2019-05-15T18:16:21.612Z,99.90
2019-05-15T18:18:51.511Z,99.90
2019-05-15T18:21:21.986Z,99.90
2019-05-15T18:23:52.669Z,99.90
2019-05-15T18:26:22.371Z,99.90
2019-05-15T18:28:52.143Z,99.90
2019-05-15T18:31:21.691Z,99.90
2019-05-15T18:33:53.643Z,99.90
2019-05-15T18:36:23.212Z,99.90
2019-05-15T18:38:52.805Z,99.90
2019-05-15T18:41:23.158Z,99.90
2019-05-15T18:43:52.859Z,99.90
2019-05-15T18:46:22.680Z,99.90
2019-05-15T18:48:52.755Z,99.90
2019-05-15T18:51:22.927Z,99.90
2019-05-15T18:53:52.699Z,99.90
2019-05-15T18:56:22.352Z,99.90
2019-05-15T18:58:51.702Z,99.90
2019-05-15T19:01:22.296Z,99.90
2019-05-15T19:03:51.863Z,99.90
2019-05-15T19:06:21.514Z,99.90
2019-05-15T19:08:53.252Z,99.90
2019-05-15T19:11:23.024Z,99.90
2019-05-15T19:13:52.726Z,99.90
2019-05-15T19:16:22.060Z,99.90
2019-05-15T19:18:51.735Z,99.90
2019-05-15T19:21:21.648Z,99.90
2019-05-15T19:23:51.662Z,99.90
2019-05-15T19:26:21.262Z,99.90
2019-05-15T19:28:51.021Z,99.90
2019-05-15T19:31:26.749Z,99.90
2019-05-15T19:33:51.850Z,99.90
2019-05-15T19:36:22.268Z,99.90
2019-05-15T19:38:52.353Z,99.90
2019-05-15T19:41:22.063Z,99.90
2019-05-15T19:43:51.831Z,99.90
2019-05-15T19:46:22.277Z,99.90
2019-05-15T19:48:52.073Z,99.90
2019-05-15T19:51:22.158Z,99.90
2019-05-15T19:53:52.281Z,99.90
2019-05-15T19:56:22.047Z,99.90
2019-05-15T19:58:51.917Z,99.90
2019-05-15T20:01:21.616Z,99.90
2019-05-15T20:03:53.330Z,99.90
2019-05-15T20:06:22.681Z,99.90
2019-05-15T20:08:52.626Z,99.90
2019-05-15T20:11:22.165Z,99.90
2019-05-15T20:13:51.680Z,99.90
2019-05-15T20:16:21.548Z,99.90
2019-05-15T20:18:51.283Z,99.90
2019-05-15T20:21:20.961Z,99.90
2019-05-15T20:23:50.891Z,99.90
2019-05-15T20:26:20.726Z,99.90
2019-05-15T20:28:50.500Z,99.90
2019-05-15T20:31:20.081Z,99.90
2019-05-15T20:34:02.136Z,99.90
2019-05-15T20:36:21.555Z,99.90
2019-05-15T20:38:51.444Z,99.90
2019-05-15T20:41:21.297Z,99.90
2019-05-15T20:43:50.986Z,99.90
2019-05-15T20:46:21.127Z,99.90
2019-05-15T20:48:51.019Z,99.90
2019-05-15T20:51:20.570Z,99.90
2019-05-15T20:53:51.821Z,99.90
2019-05-15T20:56:21.518Z,99.90
2019-05-15T20:58:51.417Z,99.90
2019-05-15T21:01:21.089Z,99.90
2019-05-15T21:03:51.036Z,99.90
2019-05-15T21:06:21.961Z,99.90
2019-05-15T21:08:51.865Z,99.90
2019-05-15T21:11:21.667Z,99.90
2019-05-15T21:13:51.385Z,99.90
2019-05-15T21:16:20.935Z,99.90
2019-05-15T21:18:50.860Z,99.90
2019-05-15T21:21:20.720Z,99.90
2019-05-15T21:23:50.387Z,99.90
2019-05-15T21:26:19.963Z,99.90
2019-05-15T21:28:49.869Z,99.90
2019-05-15T21:31:22.034Z,99.90
2019-05-15T21:33:51.349Z,99.90
2019-05-15T21:36:20.809Z,99.90
2019-05-15T21:38:50.317Z,99.90
2019-05-15T21:41:20.061Z,99.90
2019-05-15T21:43:50.518Z,99.90
2019-05-15T21:46:20.562Z,99.90
2019-05-15T21:48:50.311Z,99.90
2019-05-15T21:51:20.213Z,99.90
2019-05-15T21:53:49.949Z,99.90
2019-05-15T21:56:19.635Z,99.90
2019-05-15T21:58:49.482Z,99.90
2019-05-15T22:01:19.811Z,99.90
2019-05-15T22:03:49.863Z,99.90
2019-05-15T22:06:19.836Z,99.90
2019-05-15T22:08:49.462Z,99.90
2019-05-15T22:11:23.155Z,99.90
2019-05-15T22:13:52.917Z,99.90
2019-05-15T22:16:23.238Z,99.90
2019-05-15T22:18:52.945Z,99.90
2019-05-15T22:21:22.792Z,99.90
2019-05-15T22:23:52.467Z,99.90
2019-05-15T22:26:22.114Z,99.90
2019-05-15T22:28:51.774Z,99.90
2019-05-15T22:31:22.420Z,99.90
2019-05-15T22:33:52.338Z,99.90
2019-05-15T22:36:22.074Z,99.90
2019-05-15T22:38:52.070Z,99.90
2019-05-15T22:41:21.730Z,99.90
2019-05-15T22:43:51.350Z,99.90
2019-05-15T22:46:20.878Z,99.90
2019-05-15T22:48:50.564Z,99.90
2019-05-15T22:51:20.470Z,99.90
2019-05-15T22:53:50.127Z,99.90
2019-05-15T22:56:20.000Z,99.90
2019-05-15T22:58:49.585Z,99.90
2019-05-15T23:01:19.240Z,99.90
2019-05-15T23:03:50.185Z,99.90
2019-05-15T23:06:20.102Z,99.90
2019-05-15T23:08:50.018Z,99.90
2019-05-15T23:11:19.496Z,99.90
2019-05-15T23:13:49.171Z,99.90
2019-05-15T23:16:19.020Z,99.90
2019-05-15T23:18:49.343Z,99.90
2019-05-15T23:21:19.768Z,99.90
2019-05-15T23:23:50.388Z,99.90
2019-05-15T23:26:19.924Z,99.90
2019-05-15T23:28:49.849Z,99.90
2019-05-15T23:31:19.587Z,99.90
2019-05-15T23:33:49.345Z,99.90
2019-05-15T23:36:18.871Z,99.90
2019-05-15T23:38:48.923Z,99.90
2019-05-15T23:41:19.093Z,99.90
2019-05-15T23:43:48.766Z,99.90
2019-05-15T23:46:18.609Z,99.90
2019-05-15T23:48:48.706Z,99.90
2019-05-15T23:51:19.112Z,99.90
2019-05-15T23:53:48.939Z,99.90
2019-05-15T23:56:19.243Z,99.90
2019-05-15T23:58:49.284Z,99.90
